createdAt,value
2022-08-03T00:02:20.141Z,19.73
2022-08-03T00:04:47.237Z,19.72
2022-08-03T00:07:14.451Z,19.70
2022-08-03T00:09:41.523Z,19.69
2022-08-03T00:12:08.795Z,19.66
2022-08-03T00:14:36.195Z,19.64
2022-08-03T00:17:03.580Z,19.55
2022-08-03T00:19:30.989Z,19.61
2022-08-03T00:21:58.133Z,19.61
2022-08-03T00:24:26.111Z,19.59
2022-08-03T00:26:53.209Z,19.60
2022-08-03T00:29:21.553Z,19.58
2022-08-03T00:31:52.669Z,19.56
2022-08-03T00:34:57.110Z,19.51
2022-08-03T00:37:14.556Z,19.48
2022-08-03T00:39:45.839Z,19.46
2022-08-03T00:42:13.016Z,19.42
2022-08-03T00:44:44.457Z,19.41
2022-08-03T00:47:12.109Z,19.38
2022-08-03T00:49:41.059Z,19.35
2022-08-03T00:52:12.131Z,19.27
2022-08-03T00:54:40.243Z,19.29
2022-08-03T00:57:08.432Z,19.27
2022-08-03T00:59:39.617Z,19.25
2022-08-03T01:02:06.788Z,19.17
2022-08-03T01:04:34.395Z,19.20
2022-08-03T01:07:37.851Z,19.14
2022-08-03T01:10:26.923Z,19.11
2022-08-03T01:14:01.620Z,19.08
2022-08-03T01:16:37.026Z,19.04
2022-08-03T01:19:38.052Z,19.02
2022-08-03T01:22:17.838Z,18.98
2022-08-03T01:25:02.127Z,18.95
2022-08-03T01:27:59.606Z,18.90
2022-08-03T01:30:31.657Z,18.86
2022-08-03T01:33:06.088Z,18.88
2022-08-03T01:35:44.749Z,18.82
2022-08-03T01:38:15.486Z,18.81
2022-08-03T01:40:44.879Z,18.79
2022-08-03T01:43:55.437Z,18.79
2022-08-03T01:46:05.583Z,18.77
2022-08-03T01:48:34.471Z,18.75
2022-08-03T01:51:02.062Z,18.72
2022-08-03T01:53:31.447Z,18.67
2022-08-03T01:55:59.995Z,18.70
2022-08-03T01:58:29.596Z,18.64
2022-08-03T02:01:01.157Z,18.63
2022-08-03T02:03:31.877Z,18.62
2022-08-03T02:06:58.878Z,18.61
2022-08-03T02:08:49.045Z,18.60
2022-08-03T02:11:16.533Z,18.60
2022-08-03T02:13:47.923Z,18.55
2022-08-03T02:16:15.107Z,18.57
2022-08-03T02:18:42.511Z,18.56
2022-08-03T02:21:11.849Z,18.54
2022-08-03T02:23:59.253Z,18.51
2022-08-03T02:26:30.606Z,18.50
2022-08-03T02:29:05.796Z,18.50
2022-08-03T02:31:38.223Z,18.49
2022-08-03T02:34:13.427Z,18.46
2022-08-03T02:36:42.948Z,18.45
2022-08-03T02:39:13.286Z,18.46
2022-08-03T02:41:46.550Z,18.42
2022-08-03T02:44:17.163Z,18.46
2022-08-03T02:46:49.216Z,18.44
2022-08-03T02:49:49.472Z,18.44
2022-08-03T02:52:13.103Z,18.45
2022-08-03T02:54:41.399Z,18.45
2022-08-03T02:57:10.274Z,18.45
2022-08-03T02:59:39.616Z,18.47
2022-08-03T03:02:07.391Z,18.47
2022-08-03T03:04:35.878Z,18.48
2022-08-03T03:07:05.753Z,18.48
2022-08-03T03:09:41.803Z,18.49
2022-08-03T03:12:12.986Z,18.49
2022-08-03T03:14:40.495Z,18.47
2022-08-03T03:17:09.906Z,18.45
2022-08-03T03:19:39.846Z,18.40
2022-08-03T03:22:08.991Z,18.41
2022-08-03T03:24:37.830Z,18.41
2022-08-03T03:27:05.671Z,18.42
2022-08-03T03:29:38.462Z,18.36
2022-08-03T03:32:09.129Z,18.39
2022-08-03T03:34:37.207Z,18.34
2022-08-03T03:37:07.654Z,18.33
2022-08-03T03:39:36.435Z,18.29
2022-08-03T03:42:05.359Z,18.26
2022-08-03T03:44:32.451Z,18.26
2022-08-03T03:46:59.642Z,18.25
2022-08-03T03:49:26.951Z,18.25
2022-08-03T03:51:57.323Z,18.26
2022-08-03T03:54:29.239Z,18.21
2022-08-03T03:56:59.586Z,18.22
2022-08-03T03:59:26.724Z,18.21
2022-08-03T04:01:59.307Z,18.20
2022-08-03T04:04:45.505Z,18.23
2022-08-03T04:07:31.240Z,18.19
2022-08-03T04:10:17.085Z,18.18
2022-08-03T04:12:50.095Z,18.16
2022-08-03T04:15:22.998Z,18.14
2022-08-03T04:17:52.635Z,18.14
2022-08-03T04:20:21.942Z,18.11
2022-08-03T04:22:53.365Z,18.11
2022-08-03T04:25:25.414Z,18.11
2022-08-03T04:28:29.892Z,18.06
2022-08-03T04:30:48.859Z,18.10
2022-08-03T04:33:17.432Z,18.12
2022-08-03T04:35:54.737Z,18.13
2022-08-03T04:38:32.903Z,18.17
2022-08-03T04:41:01.028Z,18.17
2022-08-03T04:43:31.667Z,18.17
2022-08-03T04:45:59.961Z,18.19
2022-08-03T04:48:28.135Z,18.20
2022-08-03T04:50:57.265Z,18.21
2022-08-03T04:53:25.507Z,18.19
2022-08-03T04:55:52.644Z,18.13
2022-08-03T04:58:19.675Z,18.17
2022-08-03T05:00:53.674Z,18.22
2022-08-03T05:03:25.143Z,18.24
2022-08-03T05:06:01.678Z,18.29
2022-08-03T05:08:46.063Z,18.28
2022-08-03T05:11:17.198Z,18.27
2022-08-03T05:13:45.606Z,18.26
2022-08-03T05:16:13.869Z,18.28
2022-08-03T05:18:45.936Z,18.30
2022-08-03T05:21:14.469Z,18.27
2022-08-03T05:23:41.831Z,18.33
2022-08-03T05:26:08.957Z,18.33
2022-08-03T05:28:36.916Z,18.32
2022-08-03T05:31:04.452Z,18.32
2022-08-03T05:33:31.482Z,18.33
2022-08-03T05:36:03.223Z,18.38
2022-08-03T05:38:34.539Z,18.37
2022-08-03T05:41:20.192Z,18.39
2022-08-03T05:43:52.153Z,18.36
2022-08-03T05:46:24.092Z,18.43
2022-08-03T05:48:52.229Z,18.46
2022-08-03T05:51:19.783Z,18.49
2022-08-03T05:53:47.949Z,18.50
2022-08-03T05:56:16.641Z,18.62
2022-08-03T05:58:48.079Z,18.74
2022-08-03T06:01:16.538Z,18.79
2022-08-03T06:03:45.189Z,18.84
2022-08-03T06:06:12.278Z,19.00
2022-08-03T06:08:40.268Z,19.08
2022-08-03T06:11:07.981Z,19.15
2022-08-03T06:13:35.942Z,19.29
2022-08-03T06:16:03.229Z,19.36
2022-08-03T06:18:30.481Z,19.49
2022-08-03T06:20:57.658Z,19.57
2022-08-03T06:23:52.643Z,19.68
2022-08-03T06:26:14.352Z,19.76
2022-08-03T06:28:52.831Z,19.84
2022-08-03T06:31:32.680Z,19.92
2022-08-03T06:34:32.617Z,20.07
2022-08-03T06:37:01.798Z,20.21
2022-08-03T06:39:29.488Z,20.18
2022-08-03T06:41:58.681Z,20.32
2022-08-03T06:44:26.638Z,20.30
2022-08-03T06:46:53.760Z,20.29
2022-08-03T06:49:21.900Z,20.43
2022-08-03T06:52:05.624Z,20.44
2022-08-03T06:54:34.549Z,20.65
2022-08-03T06:57:01.683Z,20.77
2022-08-03T07:00:09.051Z,20.88
2022-08-03T07:02:19.337Z,20.96
2022-08-03T07:04:52.940Z,21.04
2022-08-03T07:07:21.110Z,21.05
2022-08-03T07:09:56.875Z,21.07
2022-08-03T07:12:27.642Z,21.01
2022-08-03T07:15:00.737Z,21.03
2022-08-03T07:17:30.894Z,21.14
2022-08-03T07:19:58.460Z,21.12
2022-08-03T07:22:28.657Z,21.25
2022-08-03T07:24:59.613Z,21.45
2022-08-03T07:27:27.286Z,21.65
2022-08-03T07:29:57.057Z,21.83
2022-08-03T07:32:25.428Z,21.89
2022-08-03T07:34:54.784Z,21.99
2022-08-03T07:37:28.849Z,21.92
2022-08-03T07:40:01.475Z,21.93
2022-08-03T07:42:29.445Z,22.11
2022-08-03T07:44:59.965Z,22.28
2022-08-03T07:47:35.395Z,22.47
2022-08-03T07:50:06.748Z,22.62
2022-08-03T07:52:48.166Z,22.77
2022-08-03T07:55:24.007Z,22.83
2022-08-03T07:58:09.290Z,22.97
2022-08-03T08:00:37.030Z,22.98
2022-08-03T08:03:07.780Z,22.99
2022-08-03T08:05:36.016Z,23.16
2022-08-03T08:08:04.847Z,23.19
2022-08-03T08:10:32.879Z,23.33
2022-08-03T08:13:00.480Z,23.39
2022-08-03T08:15:28.121Z,23.44
2022-08-03T08:18:01.613Z,23.39
2022-08-03T08:20:32.147Z,23.41
2022-08-03T08:23:02.008Z,23.37
2022-08-03T08:25:31.354Z,23.27
2022-08-03T08:28:22.436Z,23.34
2022-08-03T08:30:50.731Z,23.31
2022-08-03T08:33:22.681Z,23.51
2022-08-03T08:35:53.423Z,23.64
2022-08-03T08:38:26.942Z,23.60
2022-08-03T08:40:57.574Z,23.77
2022-08-03T08:43:28.386Z,23.87
2022-08-03T08:45:59.800Z,24.03
2022-08-03T08:48:30.925Z,24.23
2022-08-03T08:50:59.031Z,24.33
2022-08-03T08:53:29.115Z,24.44
2022-08-03T08:56:02.169Z,24.57
2022-08-03T08:58:42.038Z,24.76
2022-08-03T09:01:09.206Z,24.71
2022-08-03T09:03:36.561Z,24.86
2022-08-03T09:06:08.039Z,25.01
2022-08-03T09:08:36.516Z,25.11
2022-08-03T09:11:04.639Z,25.06
2022-08-03T09:13:34.584Z,24.92
2022-08-03T09:16:21.917Z,25.16
2022-08-03T09:18:51.951Z,25.28
2022-08-03T09:21:32.157Z,25.42
2022-08-03T09:24:04.282Z,25.37
2022-08-03T09:26:37.035Z,25.31
2022-08-03T09:29:15.362Z,25.25
2022-08-03T09:31:46.882Z,25.32
2022-08-03T09:34:16.368Z,25.41
2022-08-03T09:36:44.799Z,25.25
2022-08-03T09:39:16.759Z,25.33
2022-08-03T09:42:05.692Z,25.53
2022-08-03T09:44:37.290Z,25.77
2022-08-03T09:47:10.020Z,25.88
2022-08-03T09:49:42.501Z,26.04
2022-08-03T09:52:37.805Z,26.04
2022-08-03T09:55:23.634Z,26.01
2022-08-03T09:58:10.345Z,26.20
2022-08-03T10:00:54.142Z,26.15
2022-08-03T10:03:25.421Z,26.11
2022-08-03T10:05:57.485Z,26.22
2022-08-03T10:08:27.383Z,26.35
2022-08-03T10:10:56.062Z,26.38
2022-08-03T10:13:23.530Z,26.36
2022-08-03T10:16:21.276Z,26.29
2022-08-03T10:18:41.980Z,26.32
2022-08-03T10:21:14.016Z,26.35
2022-08-03T10:23:44.013Z,26.48
2022-08-03T10:26:16.184Z,26.72
2022-08-03T10:28:50.775Z,26.80
2022-08-03T10:31:20.723Z,26.83
2022-08-03T10:33:53.173Z,26.91
2022-08-03T10:36:26.492Z,27.01
2022-08-03T10:38:57.787Z,27.15
2022-08-03T10:41:31.274Z,27.33
2022-08-03T10:44:11.096Z,27.39
2022-08-03T10:46:44.466Z,27.59
2022-08-03T10:49:17.875Z,27.69
2022-08-03T10:52:02.819Z,27.76
2022-08-03T10:55:00.738Z,27.80
2022-08-03T10:57:56.177Z,27.69
2022-08-03T11:00:28.395Z,27.76
2022-08-03T11:03:09.019Z,27.78
2022-08-03T11:05:49.058Z,27.83
2022-08-03T11:08:31.001Z,27.91
2022-08-03T11:11:00.926Z,28.04
2022-08-03T11:13:31.827Z,28.12
2022-08-03T11:16:02.348Z,28.14
2022-08-03T11:18:31.751Z,27.98
2022-08-03T11:21:00.460Z,28.01
2022-08-03T11:24:05.592Z,27.74
2022-08-03T11:26:29.410Z,27.70
2022-08-03T11:29:29.674Z,27.86
2022-08-03T11:31:59.443Z,28.15
2022-08-03T11:34:27.170Z,28.22
2022-08-03T11:37:24.599Z,28.57
2022-08-03T11:39:55.910Z,28.78
2022-08-03T11:42:23.263Z,28.98
2022-08-03T11:44:57.155Z,29.15
2022-08-03T11:47:29.500Z,29.10
2022-08-03T11:50:00.582Z,28.72
2022-08-03T11:52:34.493Z,28.61
2022-08-03T11:55:02.207Z,28.85
2022-08-03T11:58:58.210Z,28.99
2022-08-03T12:00:27.905Z,29.42
2022-08-03T12:02:57.548Z,29.72
2022-08-03T12:05:54.809Z,29.59
2022-08-03T12:08:28.549Z,29.77
2022-08-03T12:11:01.568Z,29.43
2022-08-03T12:14:10.468Z,29.32
2022-08-03T12:16:34.522Z,29.22
2022-08-03T12:19:04.705Z,29.63
2022-08-03T12:21:32.305Z,29.98
2022-08-03T12:24:04.733Z,30.15
2022-08-03T12:26:58.307Z,30.20
2022-08-03T12:29:27.396Z,30.01
2022-08-03T12:31:58.311Z,30.16
2022-08-03T12:34:47.191Z,30.07
2022-08-03T12:37:19.280Z,30.15
2022-08-03T12:40:02.177Z,30.89
2022-08-03T12:42:38.390Z,31.33
2022-08-03T12:45:22.332Z,31.70
2022-08-03T12:47:51.815Z,31.69
2022-08-03T12:50:44.917Z,32.20
2022-08-03T12:53:11.991Z,32.71
2022-08-03T12:55:57.767Z,33.38
2022-08-03T12:58:33.779Z,32.87
2022-08-03T13:01:13.679Z,32.32
2022-08-03T13:03:50.156Z,33.01
2022-08-03T13:06:26.859Z,31.80
2022-08-03T13:09:05.945Z,31.80
2022-08-03T13:11:55.808Z,31.44
2022-08-03T13:14:23.749Z,31.88
2022-08-03T13:16:52.438Z,31.67
2022-08-03T13:19:20.705Z,31.50
2022-08-03T13:22:01.632Z,31.99
2022-08-03T13:24:33.022Z,31.88
2022-08-03T13:27:21.934Z,31.86
2022-08-03T13:29:48.570Z,32.49
2022-08-03T13:32:15.824Z,31.86
2022-08-03T13:34:42.968Z,31.55
2022-08-03T13:37:12.004Z,31.46
2022-08-03T13:39:57.829Z,31.06
2022-08-03T13:42:28.377Z,31.22
2022-08-03T13:44:57.935Z,31.52
2022-08-03T13:47:25.591Z,31.70
2022-08-03T13:49:59.454Z,32.53
2022-08-03T13:52:28.270Z,32.75
2022-08-03T13:54:58.994Z,32.94
2022-08-03T13:58:04.605Z,32.83
2022-08-03T14:00:26.469Z,33.15
2022-08-03T14:03:10.808Z,32.57
2022-08-03T14:05:40.946Z,32.50
2022-08-03T14:08:08.581Z,32.50
2022-08-03T14:10:39.112Z,32.14
2022-08-03T14:13:06.650Z,32.21
2022-08-03T14:15:37.551Z,32.16
2022-08-03T14:18:15.850Z,32.34
2022-08-03T14:20:57.976Z,32.33
2022-08-03T14:23:27.038Z,32.00
2022-08-03T14:25:55.888Z,31.91
2022-08-03T14:28:24.889Z,32.01
2022-08-03T14:30:57.169Z,32.43
2022-08-03T14:33:25.781Z,31.85
2022-08-03T14:35:53.371Z,31.36
2022-08-03T14:38:22.346Z,31.66
2022-08-03T14:40:49.556Z,31.96
2022-08-03T14:43:23.028Z,31.69
2022-08-03T14:45:53.352Z,32.32
2022-08-03T14:50:33.783Z,33.07
2022-08-03T14:51:10.153Z,32.64
2022-08-03T14:53:37.278Z,32.54
2022-08-03T14:56:10.214Z,32.29
2022-08-03T14:58:38.263Z,32.93
2022-08-03T15:02:03.220Z,32.42
2022-08-03T15:03:58.540Z,32.20
2022-08-03T15:06:26.660Z,32.45
2022-08-03T15:09:21.106Z,32.13
2022-08-03T15:11:42.948Z,32.24
2022-08-03T15:14:10.006Z,32.62
2022-08-03T15:16:40.694Z,32.37
2022-08-03T15:20:02.752Z,31.98
2022-08-03T15:21:56.012Z,32.07
2022-08-03T15:24:23.253Z,32.57
2022-08-03T15:26:52.633Z,32.50
2022-08-03T15:30:08.183Z,32.52
2022-08-03T15:32:09.650Z,31.37
2022-08-03T15:34:37.242Z,31.12
2022-08-03T15:37:15.197Z,31.10
2022-08-03T15:39:58.967Z,31.96
2022-08-03T15:42:31.140Z,31.60
2022-08-03T15:44:58.898Z,31.31
2022-08-03T15:47:28.615Z,31.51
2022-08-03T15:49:58.483Z,31.67
2022-08-03T15:52:28.035Z,31.71
2022-08-03T15:54:57.190Z,31.58
2022-08-03T15:57:24.236Z,31.54
2022-08-03T15:59:56.772Z,31.90
2022-08-03T16:02:23.855Z,31.57
2022-08-03T16:04:55.979Z,32.12
2022-08-03T16:08:02.863Z,31.92
2022-08-03T16:10:31.979Z,31.54
2022-08-03T16:12:59.949Z,31.44
2022-08-03T16:15:27.799Z,31.52
2022-08-03T16:17:57.386Z,31.38
2022-08-03T16:20:31.437Z,31.78
2022-08-03T16:23:09.188Z,31.60
2022-08-03T16:25:39.346Z,31.89
2022-08-03T16:28:13.413Z,32.43
2022-08-03T16:30:45.460Z,32.21
2022-08-03T16:33:16.779Z,32.24
2022-08-03T16:35:46.455Z,32.77
2022-08-03T16:38:18.385Z,32.91
2022-08-03T16:40:53.359Z,32.47
2022-08-03T16:43:27.501Z,32.74
2022-08-03T16:45:56.068Z,32.39
2022-08-03T16:48:23.365Z,32.23
2022-08-03T16:50:50.995Z,32.52
2022-08-03T16:53:33.274Z,32.25
2022-08-03T16:56:10.169Z,32.34
2022-08-03T16:58:42.342Z,32.64
2022-08-03T17:01:24.071Z,33.15
2022-08-03T17:04:03.581Z,32.94
2022-08-03T17:06:36.140Z,32.66
2022-08-03T17:09:14.610Z,32.36
2022-08-03T17:11:47.744Z,32.48
2022-08-03T17:14:21.799Z,31.84
2022-08-03T17:16:52.939Z,30.99
2022-08-03T17:19:24.000Z,30.44
2022-08-03T17:22:01.498Z,30.41
2022-08-03T17:24:41.369Z,30.08
2022-08-03T17:27:18.567Z,29.88
2022-08-03T17:30:07.949Z,29.62
2022-08-03T17:32:57.738Z,29.26
2022-08-03T17:35:36.459Z,29.18
2022-08-03T17:38:10.655Z,29.14
2022-08-03T17:40:40.061Z,29.04
2022-08-03T17:44:14.169Z,28.95
2022-08-03T17:46:10.775Z,28.85
2022-08-03T17:48:41.372Z,28.73
2022-08-03T17:51:27.497Z,28.61
2022-08-03T17:54:18.414Z,28.64
2022-08-03T17:57:22.687Z,28.71
2022-08-03T17:59:58.353Z,28.75
2022-08-03T18:02:57.210Z,28.62
2022-08-03T18:08:38.370Z,28.50
2022-08-03T18:11:15.248Z,28.51
2022-08-03T18:13:58.130Z,28.46
2022-08-03T18:16:37.601Z,28.46
2022-08-03T18:19:09.641Z,28.27
2022-08-03T18:22:02.858Z,28.36
2022-08-03T18:24:30.312Z,28.29
2022-08-03T18:29:51.102Z,28.17
2022-08-03T18:32:18.697Z,28.10
2022-08-03T18:34:53.700Z,28.06
2022-08-03T18:37:26.716Z,28.03
2022-08-03T18:39:57.964Z,27.98
2022-08-03T18:42:26.774Z,27.88
2022-08-03T18:44:59.805Z,27.78
2022-08-03T18:48:02.288Z,27.74
2022-08-03T18:50:40.996Z,27.67
2022-08-03T18:54:02.364Z,27.64
2022-08-03T18:56:26.984Z,27.59
2022-08-03T18:58:57.527Z,27.57
2022-08-03T19:01:58.068Z,27.50
2022-08-03T19:04:36.812Z,27.48
2022-08-03T19:07:07.871Z,27.38
2022-08-03T19:09:52.339Z,27.30
2022-08-03T19:12:39.590Z,27.17
2022-08-03T19:15:13.495Z,27.09
2022-08-03T19:17:53.045Z,26.88
2022-08-03T19:20:24.950Z,26.81
2022-08-03T19:22:58.718Z,26.63
2022-08-03T19:25:34.565Z,26.48
2022-08-03T19:28:07.369Z,26.30
2022-08-03T19:30:40.106Z,26.24
2022-08-03T19:33:12.551Z,26.16
2022-08-03T19:35:55.514Z,26.12
2022-08-03T19:38:27.648Z,26.12
2022-08-03T19:41:01.508Z,26.07
2022-08-03T19:43:49.537Z,26.04
2022-08-03T19:49:19.212Z,25.91
2022-08-03T19:52:00.839Z,25.88
2022-08-03T19:54:39.586Z,25.90
2022-08-03T19:57:24.351Z,25.88
2022-08-03T19:59:53.954Z,25.86
2022-08-03T20:02:26.105Z,25.78
2022-08-03T20:05:00.107Z,25.79
2022-08-03T20:07:30.564Z,25.72
2022-08-03T20:09:59.507Z,25.66
2022-08-03T20:12:29.096Z,25.57
2022-08-03T20:14:58.026Z,25.47
2022-08-03T20:17:55.902Z,25.38
2022-08-03T20:20:18.541Z,25.23
2022-08-03T20:22:48.161Z,25.23
2022-08-03T20:25:21.070Z,25.23
2022-08-03T20:28:08.108Z,25.22
2022-08-03T20:30:47.426Z,25.18
2022-08-03T20:33:18.737Z,25.13
2022-08-03T20:35:49.270Z,25.11
2022-08-03T20:38:27.317Z,25.05
2022-08-03T20:41:09.692Z,24.98
2022-08-03T20:43:36.852Z,24.91
2022-08-03T20:46:32.035Z,24.80
2022-08-03T20:48:57.317Z,24.74
2022-08-03T20:54:29.017Z,24.61
2022-08-03T20:56:58.850Z,24.54
2022-08-03T20:59:35.096Z,24.55
2022-08-03T21:02:06.209Z,24.52
2022-08-03T21:04:33.377Z,24.48
2022-08-03T21:07:09.831Z,24.49
2022-08-03T21:09:57.221Z,24.45
2022-08-03T21:12:35.771Z,24.37
2022-08-03T21:12:56.493Z,28.55
2022-08-03T21:12:58.033Z,28.27
2022-08-03T21:13:10.649Z,25.96
2022-08-03T21:13:14.055Z,24.69
2022-08-03T21:15:07.506Z,24.29
2022-08-03T21:17:52.569Z,24.20
2022-08-03T21:20:22.478Z,24.18
2022-08-03T21:22:59.323Z,24.08
2022-08-03T21:25:31.596Z,24.01
2022-08-03T21:28:00.521Z,23.93
2022-08-03T21:30:29.740Z,23.91
2022-08-03T21:32:58.451Z,23.88
2022-08-03T21:35:26.312Z,23.79
2022-08-03T21:38:12.766Z,23.71
2022-08-03T21:40:41.477Z,23.68
2022-08-03T21:43:08.970Z,23.66
2022-08-03T21:45:46.820Z,23.63
2022-08-03T21:48:15.458Z,23.64
2022-08-03T21:50:42.964Z,23.66
2022-08-03T21:53:11.352Z,23.61
2022-08-03T21:55:39.963Z,23.59
2022-08-03T21:58:07.795Z,23.55
2022-08-03T22:00:35.981Z,23.50
2022-08-03T22:03:17.163Z,23.42
2022-08-03T22:05:44.926Z,23.33
2022-08-03T22:08:15.019Z,23.22
2022-08-03T22:10:46.169Z,23.24
2022-08-03T22:13:14.847Z,23.20
2022-08-03T22:15:42.272Z,23.14
2022-08-03T22:18:09.948Z,23.06
2022-08-03T22:20:37.140Z,22.97
2022-08-03T22:23:06.597Z,22.89
2022-08-03T22:25:38.054Z,22.90
2022-08-03T22:28:10.795Z,22.83
2022-08-03T22:30:39.149Z,22.81
2022-08-03T22:33:11.352Z,22.81
2022-08-03T22:35:47.288Z,22.76
2022-08-03T22:38:16.612Z,22.70
2022-08-03T22:40:44.464Z,22.64
2022-08-03T22:43:11.610Z,22.56
2022-08-03T22:46:07.094Z,22.52
2022-08-03T22:48:27.670Z,22.53
2022-08-03T22:50:57.604Z,22.52
2022-08-03T22:53:24.671Z,22.48
2022-08-03T22:55:57.179Z,22.49
2022-08-03T22:58:24.458Z,22.42
2022-08-03T23:01:01.635Z,22.42
2022-08-03T23:03:59.980Z,22.42
2022-08-03T23:06:23.805Z,22.39
2022-08-03T23:08:51.404Z,22.38
2022-08-03T23:11:19.264Z,22.36
2022-08-03T23:13:52.992Z,22.27
2022-08-03T23:16:29.124Z,22.29
2022-08-03T23:18:59.993Z,22.28
2022-08-03T23:21:53.644Z,22.32
2022-08-03T23:24:30.293Z,22.24
2022-08-03T23:26:58.379Z,22.24
2022-08-03T23:29:28.724Z,22.22
2022-08-03T23:32:01.491Z,22.21
2022-08-03T23:34:47.491Z,22.18
2022-08-03T23:37:15.420Z,22.18
2022-08-03T23:39:45.343Z,22.15
2022-08-03T23:42:18.257Z,22.10
2022-08-03T23:44:46.594Z,22.03
2022-08-03T23:47:13.956Z,22.03
2022-08-03T23:49:41.092Z,22.02
2022-08-03T23:52:28.464Z,21.97
2022-08-03T23:55:13.136Z,21.96
2022-08-03T23:58:11.099Z,21.92
